Time;durP1;ratioP1;P1;durP2;ratioP2;P2;SDS_P1;SDS_P2;PMS_P1;PMS_P2;Temp;Humidity;BMP_temperature;BMP_pressure;BME280_temperature;BME280_humidity;BME280_pressure;Samples;Min_cycle;Max_cycle;Signal;HPM_P1;HPM_P2
2023/11/08 00:02:24;;;;;;;;;;;10.50;99.90;;;;;;5076557;28;19904;-79
2023/11/08 00:04:50;;;;;;;;;;;10.50;99.90;;;;;;5079678;28;19916;-79
2023/11/08 00:07:15;;;;;;;;;;;10.50;99.90;;;;;;5078527;28;20003;-77
2023/11/08 00:09:41;;;;;;;;;;;10.60;99.90;;;;;;5059916;28;19915;-79
2023/11/08 00:12:08;;;;;;;;;;;10.10;99.90;;;;;;5059604;28;19951;-78
2023/11/08 00:14:34;;;;;;;;;;;10.60;99.90;;;;;;5061619;28;19904;-79
2023/11/08 00:17:01;;;;;;;;;;;10.50;99.90;;;;;;5065652;28;19991;-79
2023/11/08 00:19:27;;;;;;;;;;;10.30;99.90;;;;;;5064218;28;19908;-79
2023/11/08 00:21:53;;;;;;;;;;;10.60;99.90;;;;;;5080465;28;19954;-79
2023/11/08 00:24:18;;;;;;;;;;;10.60;99.90;;;;;;5080138;28;19913;-79
2023/11/08 00:26:45;;;;;;;;;;;10.50;99.90;;;;;;5070578;28;19931;-79
2023/11/08 00:29:11;;;;;;;;;;;10.50;99.90;;;;;;5060915;28;19911;-78
2023/11/08 00:31:36;;;;;;;;;;;10.50;99.90;;;;;;5056283;28;19905;-77
2023/11/08 00:34:03;;;;;;;;;;;10.50;99.90;;;;;;5075271;28;19923;-76
2023/11/08 00:36:30;;;;;;;;;;;10.50;99.90;;;;;;5057333;28;19957;-79
2023/11/08 00:39:10;;;;;;;;;;;10.50;99.90;;;;;;5063759;28;19905;-79
2023/11/08 00:41:35;;;;;;;;;;;10.50;99.90;;;;;;5067172;28;19908;-79
2023/11/08 00:44:03;;;;;;;;;;;10.50;99.90;;;;;;5060822;28;19917;-79
2023/11/08 00:46:28;;;;;;;;;;;10.50;99.90;;;;;;5062405;28;19905;-79
2023/11/08 00:48:56;;;;;;;;;;;10.50;99.90;;;;;;5065392;28;19908;-79
2023/11/08 00:51:21;;;;;;;;;;;10.60;99.90;;;;;;5082787;28;19909;-78
2023/11/08 00:53:47;;;;;;;;;;;10.60;99.90;;;;;;5064565;28;19991;-80
2023/11/08 00:56:13;;;;;;;;;;;10.50;99.90;;;;;;5082818;28;19970;-78
2023/11/08 00:58:39;;;;;;;;;;;10.60;99.90;;;;;;5083084;28;19919;-78
2023/11/08 01:01:05;;;;;;;;;;;10.60;99.90;;;;;;5063901;28;19908;-78
2023/11/08 01:03:32;;;;;;;;;;;10.30;99.90;;;;;;5083321;28;19935;-78
2023/11/08 01:05:57;;;;;;;;;;;10.60;99.90;;;;;;5083042;28;20011;-80
2023/11/08 01:08:23;;;;;;;;;;;10.60;99.90;;;;;;5082534;28;19943;-78
2023/11/08 01:10:49;;;;;;;;;;;10.60;99.90;;;;;;5065858;28;20291;-78
2023/11/08 01:13:15;;;;;;;;;;;10.50;99.90;;;;;;5082224;28;19905;-78
2023/11/08 01:15:41;;;;;;;;;;;10.50;99.90;;;;;;5065118;28;19911;-79
2023/11/08 01:18:06;;;;;;;;;;;10.50;99.90;;;;;;5082622;28;19905;-78
2023/11/08 01:20:32;;;;;;;;;;;10.60;99.90;;;;;;5064236;28;19939;-79
2023/11/08 01:22:58;;;;;;;;;;;10.70;99.90;;;;;;5083291;28;19911;-78
2023/11/08 01:25:27;;;;;;;;;;;10.60;99.90;;;;;;5048238;28;19916;-79
2023/11/08 01:27:52;;;;;;;;;;;10.60;99.90;;;;;;5064476;28;19913;-79
2023/11/08 01:30:18;;;;;;;;;;;10.50;99.90;;;;;;5064267;28;19904;-78
2023/11/08 01:32:43;;;;;;;;;;;10.50;99.90;;;;;;5064860;28;20334;-78
2023/11/08 01:35:09;;;;;;;;;;;10.50;99.90;;;;;;5063837;28;20380;-79
2023/11/08 01:37:36;;;;;;;;;;;10.50;99.90;;;;;;5082460;28;19911;-77
2023/11/08 01:40:02;;;;;;;;;;;10.60;99.90;;;;;;5059794;28;19918;-79
2023/11/08 01:42:29;;;;;;;;;;;10.60;99.90;;;;;;5061771;28;20000;-79
2023/11/08 01:44:55;;;;;;;;;;;10.60;99.90;;;;;;5082392;28;20405;-78
2023/11/08 01:47:23;;;;;;;;;;;10.60;99.90;;;;;;5083964;28;19908;-78
2023/11/08 01:49:49;;;;;;;;;;;10.60;99.90;;;;;;5080623;28;19957;-78
2023/11/08 01:52:15;;;;;;;;;;;10.50;99.90;;;;;;5061826;28;19975;-78
2023/11/08 01:54:45;;;;;;;;;;;10.50;99.90;;;;;;5079251;28;19915;-78
2023/11/08 01:57:11;;;;;;;;;;;10.50;99.90;;;;;;5078230;28;19905;-78
2023/11/08 01:59:37;;;;;;;;;;;10.50;99.90;;;;;;5059221;28;20383;-78
2023/11/08 02:02:02;;;;;;;;;;;10.50;99.90;;;;;;5060724;28;19908;-79
2023/11/08 02:04:31;;;;;;;;;;;10.50;99.90;;;;;;5061503;28;19991;-77
2023/11/08 02:06:56;;;;;;;;;;;10.40;99.90;;;;;;5061275;28;19911;-78
2023/11/08 02:09:22;;;;;;;;;;;10.40;99.90;;;;;;5061598;28;19904;-79
2023/11/08 02:11:47;;;;;;;;;;;10.40;99.90;;;;;;5061942;28;19908;-78
2023/11/08 02:14:13;;;;;;;;;;;10.40;99.90;;;;;;5080464;28;20253;-78
2023/11/08 02:16:40;;;;;;;;;;;10.40;99.90;;;;;;5062357;28;19904;-80
2023/11/08 02:19:07;;;;;;;;;;;10.40;99.90;;;;;;5061337;28;19909;-79
2023/11/08 02:21:33;;;;;;;;;;;10.60;99.90;;;;;;5079242;28;19954;-78
2023/11/08 02:24:11;;;;;;;;;;;10.50;99.90;;;;;;5061925;28;19912;-78
2023/11/08 02:26:36;;;;;;;;;;;10.40;99.90;;;;;;5060634;28;19905;-78
2023/11/08 02:29:03;;;;;;;;;;;10.40;99.90;;;;;;5079051;28;19904;-79
2023/11/08 02:31:30;;;;;;;;;;;10.30;99.90;;;;;;5061395;28;19919;-78
2023/11/08 02:33:57;;;;;;;;;;;10.30;99.90;;;;;;5046866;28;20003;-78
2023/11/08 02:36:24;;;;;;;;;;;10.30;99.90;;;;;;5066328;28;19908;-78
2023/11/08 02:38:50;;;;;;;;;;;10.30;99.90;;;;;;5085303;28;19904;-79
2023/11/08 02:41:17;;;;;;;;;;;10.30;99.90;;;;;;5085192;28;20372;-79
2023/11/08 02:43:43;;;;;;;;;;;10.30;99.90;;;;;;5066563;28;19925;-78
2023/11/08 02:46:19;;;;;;;;;;;10.30;99.90;;;;;;5079053;28;19968;-79
2023/11/08 02:48:47;;;;;;;;;;;10.30;99.90;;;;;;5068984;28;19957;-79
2023/11/08 02:51:20;;;;;;;;;;;10.30;99.90;;;;;;5086250;28;20011;-79
2023/11/08 02:53:48;;;;;;;;;;;10.30;99.90;;;;;;5083996;28;19908;-79
2023/11/08 02:56:15;;;;;;;;;;;10.20;99.90;;;;;;5083564;28;19904;-79
2023/11/08 02:58:41;;;;;;;;;;;10.20;99.90;;;;;;5063921;28;20000;-78
2023/11/08 03:01:09;;;;;;;;;;;10.10;99.90;;;;;;5090092;28;19984;-79
2023/11/08 03:03:35;;;;;;;;;;;10.20;99.90;;;;;;5072855;28;19912;-79
2023/11/08 03:06:01;;;;;;;;;;;10.50;99.90;;;;;;5078075;28;19916;-78
2023/11/08 03:08:27;;;;;;;;;;;10.20;99.90;;;;;;5059246;28;20237;-78
2023/11/08 03:10:52;;;;;;;;;;;10.20;99.90;;;;;;5076636;28;19950;-78
2023/11/08 03:13:18;;;;;;;;;;;10.20;99.90;;;;;;5060738;28;19953;-78
2023/11/08 03:15:43;;;;;;;;;;;10.20;99.90;;;;;;5078250;28;20365;-79
2023/11/08 03:18:09;;;;;;;;;;;10.20;99.90;;;;;;5078247;28;19908;-79
2023/11/08 03:20:35;;;;;;;;;;;10.20;99.90;;;;;;5079317;28;19920;-78
2023/11/08 03:23:01;;;;;;;;;;;10.10;99.90;;;;;;5076070;28;20482;-78
2023/11/08 03:25:27;;;;;;;;;;;10.10;99.90;;;;;;5081415;28;19912;-78
2023/11/08 03:27:53;;;;;;;;;;;10.20;99.90;;;;;;5079249;28;19912;-78
2023/11/08 03:30:18;;;;;;;;;;;10.20;99.90;;;;;;5074777;28;19912;-78
2023/11/08 03:32:44;;;;;;;;;;;10.20;99.90;;;;;;5057576;28;19933;-79
2023/11/08 03:35:10;;;;;;;;;;;10.10;99.90;;;;;;5075612;28;20345;-79
2023/11/08 03:37:36;;;;;;;;;;;10.10;99.90;;;;;;5064673;28;20003;-80
2023/11/08 03:40:02;;;;;;;;;;;10.00;99.90;;;;;;5065497;28;19991;-78
2023/11/08 03:42:29;;;;;;;;;;;10.00;99.90;;;;;;5083156;28;19920;-78
2023/11/08 03:44:55;;;;;;;;;;;10.00;99.90;;;;;;5062605;28;19924;-78
2023/11/08 03:47:21;;;;;;;;;;;10.00;99.90;;;;;;5063688;28;19904;-79
2023/11/08 03:49:46;;;;;;;;;;;10.00;99.90;;;;;;5079893;28;19919;-78
2023/11/08 03:52:12;;;;;;;;;;;10.00;99.90;;;;;;5043091;28;19915;-78
2023/11/08 03:54:38;;;;;;;;;;;10.10;99.90;;;;;;5078234;28;20388;-78
2023/11/08 03:57:03;;;;;;;;;;;10.00;99.90;;;;;;5059604;28;19924;-77
2023/11/08 03:59:29;;;;;;;;;;;10.00;99.90;;;;;;5087597;28;19911;-79
2023/11/08 04:01:55;;;;;;;;;;;10.50;99.90;;;;;;5066933;28;19912;-77
2023/11/08 04:04:21;;;;;;;;;;;10.00;99.90;;;;;;5077995;28;19913;-78
2023/11/08 04:06:47;;;;;;;;;;;10.10;99.90;;;;;;5076770;28;19908;-78
2023/11/08 04:09:15;;;;;;;;;;;10.10;99.90;;;;;;5078186;28;19908;-79
2023/11/08 04:11:40;;;;;;;;;;;10.00;99.90;;;;;;5076970;28;19963;-76
2023/11/08 04:14:06;;;;;;;;;;;9.80;99.90;;;;;;5058545;28;19908;-78
2023/11/08 04:16:37;;;;;;;;;;;9.90;99.90;;;;;;5058226;28;20039;-78
2023/11/08 04:19:03;;;;;;;;;;;9.90;99.90;;;;;;5076723;28;19909;-78
2023/11/08 04:21:28;;;;;;;;;;;9.90;99.90;;;;;;5076595;28;19969;-78
2023/11/08 04:23:54;;;;;;;;;;;9.90;99.90;;;;;;5080346;28;19909;-78
2023/11/08 04:26:21;;;;;;;;;;;9.90;99.90;;;;;;5062903;28;19909;-78
2023/11/08 04:28:47;;;;;;;;;;;9.80;99.90;;;;;;5061954;28;19939;-78
2023/11/08 04:31:14;;;;;;;;;;;9.80;99.90;;;;;;5079462;28;20352;-78
2023/11/08 04:33:40;;;;;;;;;;;9.80;99.90;;;;;;5080511;28;19934;-79
2023/11/08 04:36:08;;;;;;;;;;;9.70;99.90;;;;;;5062642;28;19909;-79
2023/11/08 04:38:34;;;;;;;;;;;9.70;99.90;;;;;;5064163;28;19904;-79
2023/11/08 04:41:00;;;;;;;;;;;9.70;99.90;;;;;;5065779;28;20399;-78
2023/11/08 04:43:26;;;;;;;;;;;9.60;99.90;;;;;;5086315;28;19917;-79
2023/11/08 04:45:53;;;;;;;;;;;9.50;99.90;;;;;;5067891;28;19917;-79
2023/11/08 04:48:22;;;;;;;;;;;9.50;99.90;;;;;;5053321;28;19917;-79
2023/11/08 04:50:49;;;;;;;;;;;9.50;99.90;;;;;;5085357;28;20341;-79
2023/11/08 04:53:15;;;;;;;;;;;9.90;99.90;;;;;;5064562;28;20425;-79
2023/11/08 04:55:40;;;;;;;;;;;9.40;99.90;;;;;;5065796;28;19912;-78
2023/11/08 04:58:09;;;;;;;;;;;9.30;99.90;;;;;;5079088;28;20365;-79
2023/11/08 05:00:35;;;;;;;;;;;9.30;99.90;;;;;;5057735;28;19912;-79
2023/11/08 05:03:00;;;;;;;;;;;9.40;99.90;;;;;;5059917;28;19923;-78
2023/11/08 05:05:26;;;;;;;;;;;9.40;99.90;;;;;;5080443;28;19916;-78
2023/11/08 05:07:54;;;;;;;;;;;9.40;99.90;;;;;;5062386;28;19904;-79
2023/11/08 05:10:19;;;;;;;;;;;9.40;99.90;;;;;;5062888;28;19905;-78
2023/11/08 05:12:48;;;;;;;;;;;9.40;99.90;;;;;;5059947;28;20003;-78
2023/11/08 05:15:15;;;;;;;;;;;9.40;99.90;;;;;;5059359;28;19909;-78
2023/11/08 05:17:42;;;;;;;;;;;9.40;99.90;;;;;;5059916;28;19905;-79
2023/11/08 05:20:07;;;;;;;;;;;9.40;99.90;;;;;;5058231;28;20316;-78
2023/11/08 05:22:33;;;;;;;;;;;9.40;99.90;;;;;;5058160;28;19927;-77
2023/11/08 05:25:00;;;;;;;;;;;9.40;99.90;;;;;;5041330;28;19917;-78
2023/11/08 05:27:26;;;;;;;;;;;9.40;99.90;;;;;;5058739;28;19904;-78
2023/11/08 05:29:51;;;;;;;;;;;9.40;99.90;;;;;;5057182;28;20295;-77
2023/11/08 05:32:20;;;;;;;;;;;9.30;99.90;;;;;;5040299;28;19905;-78
2023/11/08 05:34:47;;;;;;;;;;;9.30;99.90;;;;;;5065317;28;20373;-78
2023/11/08 05:37:12;;;;;;;;;;;9.30;99.90;;;;;;5077354;28;19948;-78
2023/11/08 05:39:38;;;;;;;;;;;9.20;99.90;;;;;;5061921;28;19912;-78
2023/11/08 05:42:04;;;;;;;;;;;9.20;99.90;;;;;;5062058;28;19927;-79
2023/11/08 05:44:30;;;;;;;;;;;9.20;99.90;;;;;;5078787;28;20765;-79
2023/11/08 05:46:56;;;;;;;;;;;9.10;99.90;;;;;;5081057;28;19912;-78
2023/11/08 05:49:22;;;;;;;;;;;9.10;99.90;;;;;;5059462;28;19908;-78
2023/11/08 05:51:47;;;;;;;;;;;9.10;99.90;;;;;;5078716;28;19905;-78
2023/11/08 05:54:13;;;;;;;;;;;9.00;99.90;;;;;;5079681;28;19930;-79
2023/11/08 05:56:38;;;;;;;;;;;9.00;99.90;;;;;;5057892;28;19913;-78
2023/11/08 05:59:05;;;;;;;;;;;8.90;99.90;;;;;;5077928;28;20376;-78
2023/11/08 06:01:31;;;;;;;;;;;9.00;99.90;;;;;;5061566;28;19955;-78
2023/11/08 06:03:56;;;;;;;;;;;8.90;99.90;;;;;;5056541;28;19904;-78
2023/11/08 06:06:22;;;;;;;;;;;8.90;99.90;;;;;;5077294;28;19947;-79
2023/11/08 06:08:52;;;;;;;;;;;8.80;99.90;;;;;;5056761;28;19905;-79
2023/11/08 06:11:18;;;;;;;;;;;8.90;99.90;;;;;;5061550;28;20383;-78
2023/11/08 06:13:44;;;;;;;;;;;8.90;99.90;;;;;;5067382;28;19908;-78
2023/11/08 06:16:10;;;;;;;;;;;8.90;99.90;;;;;;5086000;28;19904;-79
2023/11/08 06:18:36;;;;;;;;;;;9.00;99.90;;;;;;5061254;28;19916;-78
2023/11/08 06:21:03;;;;;;;;;;;9.00;99.90;;;;;;5079863;28;19991;-78
2023/11/08 06:23:30;;;;;;;;;;;8.90;99.90;;;;;;5099422;28;19908;-78
2023/11/08 06:25:56;;;;;;;;;;;8.90;99.90;;;;;;5066353;28;20350;-78
2023/11/08 06:28:22;;;;;;;;;;;8.90;99.90;;;;;;5077061;28;19951;-78
2023/11/08 06:30:47;;;;;;;;;;;8.90;99.90;;;;;;5059226;28;19909;-79
2023/11/08 06:33:13;;;;;;;;;;;8.90;99.90;;;;;;5078592;28;19908;-79
2023/11/08 06:35:41;;;;;;;;;;;8.90;99.90;;;;;;5058788;28;19998;-78
2023/11/08 06:38:06;;;;;;;;;;;8.90;99.90;;;;;;5059555;28;19948;-79
2023/11/08 06:40:32;;;;;;;;;;;9.00;99.90;;;;;;5060378;28;20296;-78
2023/11/08 06:42:59;;;;;;;;;;;8.80;99.90;;;;;;5061320;28;19917;-78
2023/11/08 06:45:25;;;;;;;;;;;8.80;99.90;;;;;;5078100;28;19916;-78
2023/11/08 06:47:53;;;;;;;;;;;8.80;99.90;;;;;;5062616;28;19920;-78
2023/11/08 06:50:19;;;;;;;;;;;8.80;99.90;;;;;;5077537;28;19908;-79
2023/11/08 06:52:46;;;;;;;;;;;8.90;99.90;;;;;;5060864;28;19971;-79
2023/11/08 06:55:11;;;;;;;;;;;8.90;99.90;;;;;;5078169;28;19908;-78
2023/11/08 06:57:38;;;;;;;;;;;8.90;99.90;;;;;;5060296;28;19968;-78
2023/11/08 07:00:07;;;;;;;;;;;9.00;99.90;;;;;;5059291;28;20029;-78
2023/11/08 07:02:32;;;;;;;;;;;9.00;99.90;;;;;;5060003;28;19908;-78
2023/11/08 07:04:59;;;;;;;;;;;9.00;99.90;;;;;;5056594;28;19920;-78
2023/11/08 07:07:24;;;;;;;;;;;9.00;99.90;;;;;;5059810;28;19916;-78
2023/11/08 07:09:50;;;;;;;;;;;9.00;99.90;;;;;;5078110;28;19908;-80
2023/11/08 07:12:15;;;;;;;;;;;9.10;99.90;;;;;;5060051;28;19908;-78
2023/11/08 07:14:42;;;;;;;;;;;9.10;99.90;;;;;;5077997;28;19909;-78
2023/11/08 07:17:08;;;;;;;;;;;9.10;99.90;;;;;;5059338;28;19958;-79
2023/11/08 07:19:35;;;;;;;;;;;9.10;99.90;;;;;;5076320;28;19912;-78
2023/11/08 07:22:00;;;;;;;;;;;9.10;99.90;;;;;;5077081;28;19908;-78
2023/11/08 07:24:26;;;;;;;;;;;9.30;99.90;;;;;;5078053;28;19958;-78
2023/11/08 07:26:51;;;;;;;;;;;9.30;99.90;;;;;;5060067;28;19927;-79
2023/11/08 07:29:17;;;;;;;;;;;9.40;99.90;;;;;;5078328;28;19904;-78
2023/11/08 07:31:43;;;;;;;;;;;9.40;99.90;;;;;;5076135;28;19923;-78
2023/11/08 07:34:09;;;;;;;;;;;9.40;99.90;;;;;;5048921;28;20327;-78
2023/11/08 07:36:34;;;;;;;;;;;9.50;99.90;;;;;;5077898;28;19929;-78
2023/11/08 07:39:02;;;;;;;;;;;9.50;99.90;;;;;;5077948;28;19904;-79
2023/11/08 07:41:32;;;;;;;;;;;9.50;99.90;;;;;;5077585;28;19904;-78
2023/11/08 07:43:58;;;;;;;;;;;9.50;99.90;;;;;;5060895;28;19977;-78
2023/11/08 07:46:26;;;;;;;;;;;9.50;99.90;;;;;;5059830;28;19940;-79
2023/11/08 07:48:55;;;;;;;;;;;9.50;99.90;;;;;;5060464;28;19947;-78
2023/11/08 07:51:22;;;;;;;;;;;9.50;99.90;;;;;;5059897;28;19904;-78
2023/11/08 07:53:47;;;;;;;;;;;9.60;99.90;;;;;;5078430;28;20323;-78
2023/11/08 07:56:13;;;;;;;;;;;9.60;99.90;;;;;;5077929;28;19966;-79
2023/11/08 07:58:39;;;;;;;;;;;9.60;99.90;;;;;;5063452;28;19931;-78
2023/11/08 08:01:05;;;;;;;;;;;9.50;99.90;;;;;;5064091;28;19915;-78
2023/11/08 08:03:31;;;;;;;;;;;9.50;99.90;;;;;;5063650;28;20372;-78
2023/11/08 08:05:57;;;;;;;;;;;9.50;99.90;;;;;;5080923;28;19919;-77
2023/11/08 08:08:23;;;;;;;;;;;9.60;99.90;;;;;;5078877;28;19908;-78
2023/11/08 08:10:50;;;;;;;;;;;9.50;99.90;;;;;;5080128;28;19914;-79
2023/11/08 08:13:16;;;;;;;;;;;9.50;99.90;;;;;;5063524;28;19995;-78
2023/11/08 08:15:43;;;;;;;;;;;9.60;99.90;;;;;;5081243;28;20391;-78
2023/11/08 08:18:11;;;;;;;;;;;9.70;99.90;;;;;;5081564;28;19904;-78
2023/11/08 08:20:38;;;;;;;;;;;9.70;99.90;;;;;;5079637;28;19995;-77
2023/11/08 08:23:06;;;;;;;;;;;9.80;99.90;;;;;;5070612;28;19940;-78
2023/11/08 08:25:33;;;;;;;;;;;9.90;99.90;;;;;;5060865;28;19975;-78
2023/11/08 08:27:59;;;;;;;;;;;10.00;99.90;;;;;;5048347;28;19932;-77
2023/11/08 08:30:24;;;;;;;;;;;10.00;99.90;;;;;;5075151;28;19916;-78
2023/11/08 08:32:50;;;;;;;;;;;10.00;99.90;;;;;;5062628;28;19904;-78
2023/11/08 08:35:17;;;;;;;;;;;10.10;99.90;;;;;;5079368;28;20369;-79
2023/11/08 08:37:43;;;;;;;;;;;10.10;99.90;;;;;;5060933;28;19951;-78
2023/11/08 08:40:12;;;;;;;;;;;10.10;99.90;;;;;;5061504;28;19920;-78
2023/11/08 08:42:38;;;;;;;;;;;10.20;99.90;;;;;;5078827;28;19924;-80
2023/11/08 08:45:08;;;;;;;;;;;10.30;99.90;;;;;;5076555;28;19932;-79
2023/11/08 08:47:34;;;;;;;;;;;10.40;99.90;;;;;;5045167;28;19966;-79
2023/11/08 08:50:01;;;;;;;;;;;10.50;99.90;;;;;;5059959;28;19905;-78
2023/11/08 08:52:27;;;;;;;;;;;10.70;99.90;;;;;;5060341;28;20437;-78
2023/11/08 08:54:52;;;;;;;;;;;10.70;99.90;;;;;;5042251;28;20126;-79
2023/11/08 08:57:18;;;;;;;;;;;11.00;99.90;;;;;;5078059;28;20395;-78
2023/11/08 08:59:45;;;;;;;;;;;11.10;99.90;;;;;;5061951;28;19912;-79
2023/11/08 09:02:11;;;;;;;;;;;11.20;99.90;;;;;;5073526;28;19905;-78
2023/11/08 09:04:37;;;;;;;;;;;11.10;99.90;;;;;;5077581;28;19939;-78
2023/11/08 09:07:03;;;;;;;;;;;11.10;99.90;;;;;;5062511;28;20502;-78
2023/11/08 09:09:29;;;;;;;;;;;11.00;99.90;;;;;;5080260;28;19905;-78
2023/11/08 09:11:55;;;;;;;;;;;11.00;99.90;;;;;;5080272;28;19905;-78
2023/11/08 09:14:20;;;;;;;;;;;10.90;99.90;;;;;;5063033;28;19998;-79
2023/11/08 09:16:46;;;;;;;;;;;10.90;99.90;;;;;;5072288;28;19947;-78
2023/11/08 09:19:12;;;;;;;;;;;11.10;99.90;;;;;;5077936;28;19908;-78
2023/11/08 09:21:38;;;;;;;;;;;11.10;99.90;;;;;;5056599;28;19908;-79
2023/11/08 09:24:06;;;;;;;;;;;11.30;99.90;;;;;;5056675;28;19909;-78
2023/11/08 09:26:41;;;;;;;;;;;11.20;99.90;;;;;;5055201;28;19908;-77
2023/11/08 09:29:08;;;;;;;;;;;11.30;99.90;;;;;;5078935;28;20261;-78
2023/11/08 09:31:34;;;;;;;;;;;11.30;99.90;;;;;;5078082;28;20358;-78
2023/11/08 09:34:00;;;;;;;;;;;11.40;99.90;;;;;;5053419;28;20001;-79
2023/11/08 09:36:26;;;;;;;;;;;11.30;99.90;;;;;;5048897;28;19908;-78
2023/11/08 09:38:53;;;;;;;;;;;11.30;99.90;;;;;;5062479;28;19920;-78
2023/11/08 09:41:19;;;;;;;;;;;11.40;99.90;;;;;;5040501;28;19940;-78
2023/11/08 09:43:49;;;;;;;;;;;11.40;99.90;;;;;;5060191;28;19932;-78
2023/11/08 09:46:18;;;;;;;;;;;11.50;99.90;;;;;;5060366;28;19956;-78
2023/11/08 09:48:45;;;;;;;;;;;11.50;99.90;;;;;;5058444;28;19904;-79
2023/11/08 09:51:14;;;;;;;;;;;11.50;99.90;;;;;;5057870;28;20000;-78
2023/11/08 09:53:43;;;;;;;;;;;11.40;99.90;;;;;;5058303;28;19948;-79
2023/11/08 09:56:10;;;;;;;;;;;11.40;99.90;;;;;;5059304;28;19916;-78
2023/11/08 09:58:37;;;;;;;;;;;11.40;99.90;;;;;;5056401;28;19916;-77
2023/11/08 10:01:05;;;;;;;;;;;11.40;99.90;;;;;;5041461;28;19998;-78
2023/11/08 10:03:32;;;;;;;;;;;11.40;99.90;;;;;;5057575;28;19915;-77
2023/11/08 10:05:59;;;;;;;;;;;11.40;99.90;;;;;;5039410;28;19919;-78
2023/11/08 10:08:24;;;;;;;;;;;11.40;99.90;;;;;;5059765;28;19908;-78
2023/11/08 10:10:50;;;;;;;;;;;11.50;99.90;;;;;;5058960;28;19905;-78
2023/11/08 10:13:16;;;;;;;;;;;11.50;99.90;;;;;;5058307;28;19913;-78
2023/11/08 10:15:42;;;;;;;;;;;11.50;99.90;;;;;;5056481;28;19909;-79
2023/11/08 10:18:08;;;;;;;;;;;11.60;99.90;;;;;;5060601;28;20370;-79
2023/11/08 10:20:37;;;;;;;;;;;11.60;99.90;;;;;;5056760;28;19909;-78
2023/11/08 10:23:07;;;;;;;;;;;11.60;99.90;;;;;;5057860;28;19909;-79
2023/11/08 10:25:34;;;;;;;;;;;11.60;99.90;;;;;;5059145;28;20403;-79
2023/11/08 10:28:04;;;;;;;;;;;11.60;99.90;;;;;;5059118;28;20003;-78
2023/11/08 10:30:35;;;;;;;;;;;11.80;99.90;;;;;;5059350;28;19905;-79
2023/11/08 10:33:11;;;;;;;;;;;11.80;99.90;;;;;;5057345;28;19909;-78
2023/11/08 10:35:39;;;;;;;;;;;11.70;99.90;;;;;;5057166;28;20365;-78
2023/11/08 10:38:05;;;;;;;;;;;11.70;99.90;;;;;;5059919;28;19908;-78
2023/11/08 10:40:31;;;;;;;;;;;11.80;99.90;;;;;;5061855;28;19919;-78
2023/11/08 10:42:57;;;;;;;;;;;11.90;99.90;;;;;;5069975;28;19972;-78
2023/11/08 10:45:23;;;;;;;;;;;11.90;99.90;;;;;;5039349;28;19962;-78
2023/11/08 10:47:51;;;;;;;;;;;11.80;99.90;;;;;;5042960;28;19905;-79
2023/11/08 10:50:18;;;;;;;;;;;12.00;99.90;;;;;;5059484;28;19916;-78
2023/11/08 10:52:46;;;;;;;;;;;12.00;99.90;;;;;;5062057;28;20419;-78
2023/11/08 10:55:12;;;;;;;;;;;12.00;99.90;;;;;;5061930;28;19951;-79
2023/11/08 10:57:40;;;;;;;;;;;12.00;99.90;;;;;;5069336;28;19999;-78
2023/11/08 11:00:10;;;;;;;;;;;11.90;99.90;;;;;;5074363;28;20341;-78
2023/11/08 11:02:42;;;;;;;;;;;11.90;99.90;;;;;;5062164;28;20025;-78
2023/11/08 11:05:10;;;;;;;;;;;11.80;99.90;;;;;;5081708;28;19916;-78
2023/11/08 11:07:41;;;;;;;;;;;11.80;99.90;;;;;;5084015;28;19912;-79
2023/11/08 11:10:11;;;;;;;;;;;11.80;99.90;;;;;;5061021;28;19948;-78
2023/11/08 11:12:57;;;;;;;;;;;11.90;99.90;;;;;;5060135;28;19904;-79
2023/11/08 11:15:36;;;;;;;;;;;12.10;99.90;;;;;;5073415;28;20292;-78
2023/11/08 11:18:02;;;;;;;;;;;11.90;99.90;;;;;;5056831;28;20002;-77
2023/11/08 11:20:32;;;;;;;;;;;11.90;99.90;;;;;;5064693;28;20414;-78
2023/11/08 11:22:58;;;;;;;;;;;11.90;99.90;;;;;;5082309;28;19912;-79
2023/11/08 11:25:43;;;;;;;;;;;11.90;99.90;;;;;;5060563;28;20007;-80
2023/11/08 11:28:09;;;;;;;;;;;12.00;99.90;;;;;;5073438;28;19948;-79
2023/11/08 11:30:36;;;;;;;;;;;12.00;99.90;;;;;;5061510;28;19996;-78
2023/11/08 11:33:01;;;;;;;;;;;12.00;99.90;;;;;;5056391;28;19915;-78
2023/11/08 11:35:30;;;;;;;;;;;11.90;99.90;;;;;;5080386;28;19904;-79
2023/11/08 11:38:11;;;;;;;;;;;12.00;99.90;;;;;;5080807;28;20428;-79
2023/11/08 11:40:37;;;;;;;;;;;12.00;99.90;;;;;;5062960;28;19912;-79
2023/11/08 11:43:23;;;;;;;;;;;11.90;99.90;;;;;;5078948;28;20011;-79
2023/11/08 11:45:52;;;;;;;;;;;12.00;99.90;;;;;;5054428;28;19913;-78
2023/11/08 11:48:21;;;;;;;;;;;12.10;99.90;;;;;;5063972;28;19915;-79
2023/11/08 11:50:46;;;;;;;;;;;12.10;99.90;;;;;;5081655;28;19908;-78
2023/11/08 11:53:16;;;;;;;;;;;12.20;99.90;;;;;;5060997;28;19927;-78
2023/11/08 11:55:41;;;;;;;;;;;12.10;99.90;;;;;;5061800;28;19991;-79
2023/11/08 11:58:10;;;;;;;;;;;12.20;99.90;;;;;;5045060;28;19951;-79
2023/11/08 12:00:37;;;;;;;;;;;12.30;99.90;;;;;;5061324;28;19959;-79
2023/11/08 12:03:06;;;;;;;;;;;12.30;99.90;;;;;;5042293;28;20515;-79
2023/11/08 12:05:35;;;;;;;;;;;12.30;99.90;;;;;;5056097;28;19913;-78
2023/11/08 12:08:10;;;;;;;;;;;12.40;99.90;;;;;;5050325;28;19909;-79
2023/11/08 12:10:37;;;;;;;;;;;12.50;99.90;;;;;;5058904;28;19908;-77
2023/11/08 12:13:03;;;;;;;;;;;12.50;99.90;;;;;;5042194;28;19978;-78
2023/11/08 12:15:32;;;;;;;;;;;12.50;99.90;;;;;;5054604;28;19909;-78
2023/11/08 12:17:58;;;;;;;;;;;12.00;99.90;;;;;;5060230;28;19978;-79
2023/11/08 12:20:33;;;;;;;;;;;12.50;99.90;;;;;;5061321;28;19905;-78
2023/11/08 12:23:08;;;;;;;;;;;12.50;99.90;;;;;;5060743;28;19909;-78
2023/11/08 12:25:34;;;;;;;;;;;12.60;99.90;;;;;;5056561;28;19981;-78
2023/11/08 12:28:01;;;;;;;;;;;12.60;99.90;;;;;;5059820;28;20520;-79
2023/11/08 12:30:28;;;;;;;;;;;12.70;99.90;;;;;;5056089;28;19905;-78
2023/11/08 12:32:58;;;;;;;;;;;12.70;99.90;;;;;;5059525;28;20027;-79
2023/11/08 12:35:26;;;;;;;;;;;12.70;99.90;;;;;;5058433;28;19913;-78
2023/11/08 12:37:58;;;;;;;;;;;12.80;99.90;;;;;;5054649;28;19916;-79
2023/11/08 12:40:27;;;;;;;;;;;12.80;99.90;;;;;;5060450;28;20289;-79
2023/11/08 12:42:53;;;;;;;;;;;12.90;99.90;;;;;;5061936;28;19974;-78
2023/11/08 12:45:29;;;;;;;;;;;12.90;99.90;;;;;;5060328;28;19920;-78
2023/11/08 12:48:17;;;;;;;;;;;12.80;99.90;;;;;;5045865;28;19913;-79
2023/11/08 12:50:49;;;;;;;;;;;12.70;99.90;;;;;;5044211;28;19915;-79
2023/11/08 12:53:15;;;;;;;;;;;12.60;99.90;;;;;;5056224;28;19943;-79
2023/11/08 12:55:41;;;;;;;;;;;12.50;99.90;;;;;;5044920;28;19905;-78
2023/11/08 12:58:23;;;;;;;;;;;12.40;99.90;;;;;;5044653;28;19916;-78
2023/11/08 13:00:49;;;;;;;;;;;12.40;99.90;;;;;;5045044;28;19909;-80
2023/11/08 13:03:20;;;;;;;;;;;12.20;99.90;;;;;;5060076;28;20384;-78
2023/11/08 13:05:47;;;;;;;;;;;12.20;99.90;;;;;;5060598;28;19912;-78
2023/11/08 13:08:12;;;;;;;;;;;11.90;99.90;;;;;;5065213;28;19904;-78
2023/11/08 13:10:40;;;;;;;;;;;12.10;99.90;;;;;;5083945;28;19904;-80
2023/11/08 13:13:05;;;;;;;;;;;12.20;99.90;;;;;;5066485;28;19909;-79
2023/11/08 13:15:31;;;;;;;;;;;12.30;99.90;;;;;;5082449;28;19909;-78
2023/11/08 13:17:57;;;;;;;;;;;12.30;99.90;;;;;;5057535;28;19905;-77
2023/11/08 13:20:23;;;;;;;;;;;12.40;99.90;;;;;;5048602;28;19913;-78
2023/11/08 13:22:48;;;;;;;;;;;12.50;99.90;;;;;;5062700;28;19905;-78
2023/11/08 13:25:14;;;;;;;;;;;12.50;99.90;;;;;;5061581;28;20047;-78
2023/11/08 13:27:39;;;;;;;;;;;12.40;99.90;;;;;;5080264;28;19998;-78
2023/11/08 13:30:06;;;;;;;;;;;12.40;99.90;;;;;;5079987;28;19912;-77
2023/11/08 13:32:33;;;;;;;;;;;12.40;99.90;;;;;;5063296;28;19908;-78
2023/11/08 13:34:59;;;;;;;;;;;12.40;99.90;;;;;;5067159;28;19952;-77
2023/11/08 13:37:26;;;;;;;;;;;12.40;99.90;;;;;;5060613;28;20331;-78
2023/11/08 13:39:53;;;;;;;;;;;12.30;99.90;;;;;;5044830;28;19905;-78
2023/11/08 13:42:18;;;;;;;;;;;12.20;99.90;;;;;;5059873;28;20504;-78
2023/11/08 13:44:46;;;;;;;;;;;12.10;99.90;;;;;;5074208;28;19923;-79
2023/11/08 13:47:12;;;;;;;;;;;12.10;99.90;;;;;;5065168;28;20388;-78
2023/11/08 13:49:38;;;;;;;;;;;12.10;98.90;;;;;;5081715;28;19908;-79
2023/11/08 13:52:05;;;;;;;;;;;12.10;99.90;;;;;;5065147;28;19997;-79
2023/11/08 13:54:31;;;;;;;;;;;12.10;99.90;;;;;;5064480;28;19910;-78
2023/11/08 13:56:57;;;;;;;;;;;12.10;99.90;;;;;;5074932;28;19967;-77
2023/11/08 13:59:24;;;;;;;;;;;12.10;99.90;;;;;;5063029;28;19959;-78
2023/11/08 14:01:50;;;;;;;;;;;12.20;99.90;;;;;;5045597;28;19959;-79
2023/11/08 14:04:16;;;;;;;;;;;12.20;99.90;;;;;;5062759;28;19928;-77
2023/11/08 14:06:42;;;;;;;;;;;12.20;99.90;;;;;;5057390;28;20028;-78
2023/11/08 14:09:12;;;;;;;;;;;12.10;99.90;;;;;;5064361;28;19951;-78
2023/11/08 14:11:38;;;;;;;;;;;12.10;99.90;;;;;;5088732;28;20365;-79
2023/11/08 14:14:04;;;;;;;;;;;12.10;99.90;;;;;;5063881;28;19912;-79
2023/11/08 14:16:30;;;;;;;;;;;12.10;99.90;;;;;;5068365;28;19912;-77
2023/11/08 14:18:57;;;;;;;;;;;11.90;99.90;;;;;;5062856;28;19932;-79
2023/11/08 14:21:23;;;;;;;;;;;11.90;99.90;;;;;;5081339;28;19912;-78